sensor_id;sensor_type;location;lat;lon;timestamp;pressure;altitude;pressure_sealevel;temperature;humidity
20930;BME280;21895;47.072;15.132;2023-07-08T00:00:54;97344.00;;;17.15;71.19
20930;BME280;21895;47.072;15.132;2023-07-08T00:03:21;97341.00;;;17.00;71.81
20930;BME280;21895;47.072;15.132;2023-07-08T00:05:56;97347.00;;;16.76;72.95
20930;BME280;21895;47.072;15.132;2023-07-08T00:08:23;97346.00;;;16.62;73.21
20930;BME280;21895;47.072;15.132;2023-07-08T00:10:49;97349.00;;;16.44;74.12
20930;BME280;21895;47.072;15.132;2023-07-08T00:13:16;97348.00;;;16.50;73.85
20930;BME280;21895;47.072;15.132;2023-07-08T00:15:45;97335.00;;;16.45;73.73
20930;BME280;21895;47.072;15.132;2023-07-08T00:18:16;97339.00;;;16.37;74.14
20930;BME280;21895;47.072;15.132;2023-07-08T00:20:49;97338.00;;;16.32;74.68
20930;BME280;21895;47.072;15.132;2023-07-08T00:23:16;97339.00;;;16.31;74.67
20930;BME280;21895;47.072;15.132;2023-07-08T00:25:43;97346.00;;;16.26;74.72
20930;BME280;21895;47.072;15.132;2023-07-08T00:28:17;97344.00;;;16.14;75.49
20930;BME280;21895;47.072;15.132;2023-07-08T00:30:44;97343.00;;;16.21;75.69
20930;BME280;21895;47.072;15.132;2023-07-08T00:33:10;97338.00;;;16.30;75.34
20930;BME280;21895;47.072;15.132;2023-07-08T00:35:45;97333.00;;;16.29;75.79
20930;BME280;21895;47.072;15.132;2023-07-08T00:38:27;97336.00;;;16.21;75.80
20930;BME280;21895;47.072;15.132;2023-07-08T00:41:54;97337.00;;;16.16;75.30
20930;BME280;21895;47.072;15.132;2023-07-08T00:44:21;97340.00;;;16.05;75.84
20930;BME280;21895;47.072;15.132;2023-07-08T00:47:09;97337.00;;;16.06;76.00
20930;BME280;21895;47.072;15.132;2023-07-08T00:49:54;97346.00;;;15.92;76.61
20930;BME280;21895;47.072;15.132;2023-07-08T00:52:28;97340.00;;;15.98;75.89
20930;BME280;21895;47.072;15.132;2023-07-08T00:54:59;97336.00;;;15.79;75.76
20930;BME280;21895;47.072;15.132;2023-07-08T00:57:40;97335.00;;;15.83;75.44
20930;BME280;21895;47.072;15.132;2023-07-08T01:00:15;97338.00;;;15.63;77.05
20930;BME280;21895;47.072;15.132;2023-07-08T01:02:52;97338.00;;;15.83;77.13
20930;BME280;21895;47.072;15.132;2023-07-08T01:05:27;97342.00;;;15.69;76.62
20930;BME280;21895;47.072;15.132;2023-07-08T01:07:59;97340.00;;;15.64;77.32
20930;BME280;21895;47.072;15.132;2023-07-08T01:10:53;97342.00;;;15.81;77.20
20930;BME280;21895;47.072;15.132;2023-07-08T01:13:21;97342.00;;;15.67;78.22
20930;BME280;21895;47.072;15.132;2023-07-08T01:15:49;97337.00;;;15.64;78.36
20930;BME280;21895;47.072;15.132;2023-07-08T01:18:18;97338.00;;;15.63;78.72
20930;BME280;21895;47.072;15.132;2023-07-08T01:20:50;97337.00;;;15.60;78.89
20930;BME280;21895;47.072;15.132;2023-07-08T01:23:23;97334.00;;;15.67;78.89
20930;BME280;21895;47.072;15.132;2023-07-08T01:25:50;97333.00;;;15.53;77.73
20930;BME280;21895;47.072;15.132;2023-07-08T01:28:17;97341.00;;;15.55;78.07
20930;BME280;21895;47.072;15.132;2023-07-08T01:30:45;97337.00;;;15.54;76.60
20930;BME280;21895;47.072;15.132;2023-07-08T01:33:19;97333.00;;;15.41;77.01
20930;BME280;21895;47.072;15.132;2023-07-08T01:35:51;97337.00;;;15.39;77.23
20930;BME280;21895;47.072;15.132;2023-07-08T01:38:24;97328.00;;;15.40;77.09
20930;BME280;21895;47.072;15.132;2023-07-08T01:40:57;97330.00;;;15.44;77.36
20930;BME280;21895;47.072;15.132;2023-07-08T01:43:24;97334.00;;;15.42;77.54
20930;BME280;21895;47.072;15.132;2023-07-08T01:45:52;97326.00;;;15.52;76.75
20930;BME280;21895;47.072;15.132;2023-07-08T01:48:22;97331.00;;;15.62;77.09
20930;BME280;21895;47.072;15.132;2023-07-08T01:50:57;97326.00;;;15.79;76.70
20930;BME280;21895;47.072;15.132;2023-07-08T01:53:38;97320.00;;;15.79;76.73
20930;BME280;21895;47.072;15.132;2023-07-08T01:56:07;97328.00;;;15.85;76.55
20930;BME280;21895;47.072;15.132;2023-07-08T01:58:34;97324.00;;;16.03;75.85
20930;BME280;21895;47.072;15.132;2023-07-08T02:01:00;97335.00;;;15.80;76.64
20930;BME280;21895;47.072;15.132;2023-07-08T02:03:28;97332.00;;;15.82;76.90
20930;BME280;21895;47.072;15.132;2023-07-08T02:05:55;97330.00;;;15.78;76.56
20930;BME280;21895;47.072;15.132;2023-07-08T02:08:22;97326.00;;;15.81;76.81
20930;BME280;21895;47.072;15.132;2023-07-08T02:10:56;97333.00;;;15.80;76.79
20930;BME280;21895;47.072;15.132;2023-07-08T02:13:25;97339.00;;;15.68;75.48
20930;BME280;21895;47.072;15.132;2023-07-08T02:15:51;97341.00;;;15.53;75.68
20930;BME280;21895;47.072;15.132;2023-07-08T02:18:18;97330.00;;;15.51;75.76
20930;BME280;21895;47.072;15.132;2023-07-08T02:20:46;97323.00;;;15.35;76.37
20930;BME280;21895;47.072;15.132;2023-07-08T02:23:14;97327.00;;;15.29;76.65
20930;BME280;21895;47.072;15.132;2023-07-08T02:25:41;97321.00;;;15.17;77.96
20930;BME280;21895;47.072;15.132;2023-07-08T02:28:08;97327.00;;;15.44;77.58
20930;BME280;21895;47.072;15.132;2023-07-08T02:30:34;97318.00;;;15.58;77.16
20930;BME280;21895;47.072;15.132;2023-07-08T02:33:01;97315.00;;;15.89;75.97
20930;BME280;21895;47.072;15.132;2023-07-08T02:35:30;97319.00;;;15.76;76.44
20930;BME280;21895;47.072;15.132;2023-07-08T02:37:57;97323.00;;;15.77;76.23
20930;BME280;21895;47.072;15.132;2023-07-08T02:40:25;97320.00;;;15.60;76.17
20930;BME280;21895;47.072;15.132;2023-07-08T02:42:52;97320.00;;;15.55;76.37
20930;BME280;21895;47.072;15.132;2023-07-08T02:45:19;97319.00;;;15.57;76.35
20930;BME280;21895;47.072;15.132;2023-07-08T02:47:45;97319.00;;;15.51;77.16
20930;BME280;21895;47.072;15.132;2023-07-08T02:50:15;97316.00;;;15.59;77.29
20930;BME280;21895;47.072;15.132;2023-07-08T02:52:46;97315.00;;;15.65;77.44
20930;BME280;21895;47.072;15.132;2023-07-08T02:55:12;97310.00;;;15.76;76.04
20930;BME280;21895;47.072;15.132;2023-07-08T02:57:39;97313.00;;;15.79;75.72
20930;BME280;21895;47.072;15.132;2023-07-08T03:00:06;97311.00;;;15.85;75.75
20930;BME280;21895;47.072;15.132;2023-07-08T03:02:33;97317.00;;;15.93;75.47
20930;BME280;21895;47.072;15.132;2023-07-08T03:05:00;97312.00;;;15.85;75.52
20930;BME280;21895;47.072;15.132;2023-07-08T03:07:27;97309.00;;;15.93;75.66
20930;BME280;21895;47.072;15.132;2023-07-08T03:09:53;97319.00;;;16.11;73.99
20930;BME280;21895;47.072;15.132;2023-07-08T03:12:20;97319.00;;;15.90;74.69
20930;BME280;21895;47.072;15.132;2023-07-08T03:14:46;97318.00;;;15.89;74.37
20930;BME280;21895;47.072;15.132;2023-07-08T03:17:13;97315.00;;;15.91;74.75
20930;BME280;21895;47.072;15.132;2023-07-08T03:19:40;97313.00;;;15.86;74.24
20930;BME280;21895;47.072;15.132;2023-07-08T03:22:07;97312.00;;;15.85;74.49
20930;BME280;21895;47.072;15.132;2023-07-08T03:24:34;97315.00;;;16.09;73.41
20930;BME280;21895;47.072;15.132;2023-07-08T03:27:00;97315.00;;;15.96;73.69
20930;BME280;21895;47.072;15.132;2023-07-08T03:29:31;97310.00;;;16.06;73.61
20930;BME280;21895;47.072;15.132;2023-07-08T03:31:58;97299.00;;;15.80;74.70
20930;BME280;21895;47.072;15.132;2023-07-08T03:34:24;97306.00;;;16.07;73.61
20930;BME280;21895;47.072;15.132;2023-07-08T03:36:51;97302.00;;;15.81;74.78
20930;BME280;21895;47.072;15.132;2023-07-08T03:39:24;97305.00;;;15.81;75.12
20930;BME280;21895;47.072;15.132;2023-07-08T03:41:52;97303.00;;;15.83;75.33
20930;BME280;21895;47.072;15.132;2023-07-08T03:44:19;97306.00;;;15.90;74.95
20930;BME280;21895;47.072;15.132;2023-07-08T03:46:48;97294.00;;;15.84;75.24
20930;BME280;21895;47.072;15.132;2023-07-08T03:49:21;97300.00;;;15.90;75.16
20930;BME280;21895;47.072;15.132;2023-07-08T03:51:53;97307.00;;;16.12;74.83
20930;BME280;21895;47.072;15.132;2023-07-08T03:54:22;97316.00;;;16.37;72.53
20930;BME280;21895;47.072;15.132;2023-07-08T03:56:49;97320.00;;;16.39;72.03
20930;BME280;21895;47.072;15.132;2023-07-08T03:59:16;97313.00;;;16.45;71.58
20930;BME280;21895;47.072;15.132;2023-07-08T04:01:43;97315.00;;;16.43;71.79
20930;BME280;21895;47.072;15.132;2023-07-08T04:04:14;97302.00;;;16.24;72.20
20930;BME280;21895;47.072;15.132;2023-07-08T04:06:40;97303.00;;;16.32;72.98
20930;BME280;21895;47.072;15.132;2023-07-08T04:09:07;97300.00;;;16.26;73.24
20930;BME280;21895;47.072;15.132;2023-07-08T04:11:34;97294.00;;;16.50;72.60
20930;BME280;21895;47.072;15.132;2023-07-08T04:14:01;97289.00;;;16.30;73.76
20930;BME280;21895;47.072;15.132;2023-07-08T04:16:35;97291.00;;;16.19;74.32
20930;BME280;21895;47.072;15.132;2023-07-08T04:19:08;97291.00;;;16.28;73.77
20930;BME280;21895;47.072;15.132;2023-07-08T04:21:41;97285.00;;;16.34;74.15
20930;BME280;21895;47.072;15.132;2023-07-08T04:24:11;97278.00;;;16.45;74.30
20930;BME280;21895;47.072;15.132;2023-07-08T04:26:38;97278.00;;;16.51;72.96
20930;BME280;21895;47.072;15.132;2023-07-08T04:29:12;97278.00;;;16.51;72.41
20930;BME280;21895;47.072;15.132;2023-07-08T04:31:39;97279.00;;;16.64;73.21
20930;BME280;21895;47.072;15.132;2023-07-08T04:34:06;97275.00;;;16.74;73.67
20930;BME280;21895;47.072;15.132;2023-07-08T04:36:33;97275.00;;;16.99;70.83
20930;BME280;21895;47.072;15.132;2023-07-08T04:39:02;97283.00;;;16.82;70.66
20930;BME280;21895;47.072;15.132;2023-07-08T04:41:28;97274.00;;;16.82;71.03
20930;BME280;21895;47.072;15.132;2023-07-08T04:43:55;97287.00;;;16.93;72.03
20930;BME280;21895;47.072;15.132;2023-07-08T04:46:36;97270.00;;;17.40;68.99
20930;BME280;21895;47.072;15.132;2023-07-08T04:49:06;97273.00;;;17.31;68.89
20930;BME280;21895;47.072;15.132;2023-07-08T04:51:33;97265.00;;;17.38;69.39
20930;BME280;21895;47.072;15.132;2023-07-08T04:54:00;97256.00;;;17.65;70.83
20930;BME280;21895;47.072;15.132;2023-07-08T04:56:40;97258.00;;;17.98;70.74
20930;BME280;21895;47.072;15.132;2023-07-08T04:59:22;97259.00;;;18.99;68.14
20930;BME280;21895;47.072;15.132;2023-07-08T05:01:50;97254.00;;;19.54;64.64
20930;BME280;21895;47.072;15.132;2023-07-08T05:04:21;97247.00;;;19.63;64.24
20930;BME280;21895;47.072;15.132;2023-07-08T05:06:48;97248.00;;;19.79;64.64
20930;BME280;21895;47.072;15.132;2023-07-08T05:09:14;97248.00;;;19.94;63.98
20930;BME280;21895;47.072;15.132;2023-07-08T05:11:44;97249.00;;;20.22;62.68
20930;BME280;21895;47.072;15.132;2023-07-08T05:14:13;97248.00;;;20.54;62.41
20930;BME280;21895;47.072;15.132;2023-07-08T05:16:40;97249.00;;;20.79;61.86
20930;BME280;21895;47.072;15.132;2023-07-08T05:19:07;97247.00;;;21.18;58.00
20930;BME280;21895;47.072;15.132;2023-07-08T05:21:33;97253.00;;;21.60;55.59
20930;BME280;21895;47.072;15.132;2023-07-08T05:24:02;97247.00;;;21.88;55.06
20930;BME280;21895;47.072;15.132;2023-07-08T05:26:29;97252.00;;;21.95;54.84
20930;BME280;21895;47.072;15.132;2023-07-08T05:28:56;97253.00;;;22.09;55.26
20930;BME280;21895;47.072;15.132;2023-07-08T05:31:22;97254.00;;;22.44;54.08
20930;BME280;21895;47.072;15.132;2023-07-08T05:34:04;97250.00;;;22.72;52.98
20930;BME280;21895;47.072;15.132;2023-07-08T05:36:30;97260.00;;;22.72;52.98
20930;BME280;21895;47.072;15.132;2023-07-08T05:38:57;97258.00;;;22.81;53.45
20930;BME280;21895;47.072;15.132;2023-07-08T05:41:24;97254.00;;;22.75;52.88
20930;BME280;21895;47.072;15.132;2023-07-08T05:43:50;97252.00;;;22.84;54.03
20930;BME280;21895;47.072;15.132;2023-07-08T05:46:17;97247.00;;;23.24;56.14
20930;BME280;21895;47.072;15.132;2023-07-08T05:48:44;97246.00;;;23.47;53.92
20930;BME280;21895;47.072;15.132;2023-07-08T05:51:10;97244.00;;;23.82;54.91
20930;BME280;21895;47.072;15.132;2023-07-08T05:53:37;97246.00;;;23.96;54.26
20930;BME280;21895;47.072;15.132;2023-07-08T05:56:03;97240.00;;;24.35;53.32
20930;BME280;21895;47.072;15.132;2023-07-08T05:58:30;97237.00;;;24.38;54.46
20930;BME280;21895;47.072;15.132;2023-07-08T06:00:57;97240.00;;;24.52;52.05
20930;BME280;21895;47.072;15.132;2023-07-08T06:03:25;97232.00;;;24.51;53.03
20930;BME280;21895;47.072;15.132;2023-07-08T06:05:52;97238.00;;;24.49;53.08
20930;BME280;21895;47.072;15.132;2023-07-08T06:08:20;97230.00;;;24.40;53.20
20930;BME280;21895;47.072;15.132;2023-07-08T06:10:47;97245.00;;;24.79;50.36
20930;BME280;21895;47.072;15.132;2023-07-08T06:13:14;97238.00;;;24.96;51.61
20930;BME280;21895;47.072;15.132;2023-07-08T06:15:41;97241.00;;;25.27;50.52
20930;BME280;21895;47.072;15.132;2023-07-08T06:18:08;97241.00;;;25.29;51.34
20930;BME280;21895;47.072;15.132;2023-07-08T06:20:35;97245.00;;;25.28;50.19
20930;BME280;21895;47.072;15.132;2023-07-08T06:23:01;97243.00;;;25.68;49.24
20930;BME280;21895;47.072;15.132;2023-07-08T06:25:29;97240.00;;;25.59;49.47
20930;BME280;21895;47.072;15.132;2023-07-08T06:27:55;97247.00;;;25.86;48.53
20930;BME280;21895;47.072;15.132;2023-07-08T06:30:22;97231.00;;;25.80;49.23
20930;BME280;21895;47.072;15.132;2023-07-08T06:32:48;97224.00;;;25.96;49.27
20930;BME280;21895;47.072;15.132;2023-07-08T06:35:15;97222.00;;;26.10;50.18
20930;BME280;21895;47.072;15.132;2023-07-08T06:37:42;97213.00;;;26.23;48.90
20930;BME280;21895;47.072;15.132;2023-07-08T06:40:09;97218.00;;;26.32;49.49
20930;BME280;21895;47.072;15.132;2023-07-08T06:42:36;97213.00;;;26.36;48.14
20930;BME280;21895;47.072;15.132;2023-07-08T06:45:03;97210.00;;;26.28;47.00
20930;BME280;21895;47.072;15.132;2023-07-08T06:47:29;97198.00;;;26.36;47.26
20930;BME280;21895;47.072;15.132;2023-07-08T06:49:56;97202.00;;;26.70;46.53
20930;BME280;21895;47.072;15.132;2023-07-08T06:52:25;97199.00;;;26.82;46.99
20930;BME280;21895;47.072;15.132;2023-07-08T06:54:52;97198.00;;;27.06;48.35
20930;BME280;21895;47.072;15.132;2023-07-08T06:57:18;97196.00;;;27.25;47.19
20930;BME280;21895;47.072;15.132;2023-07-08T06:59:45;97195.00;;;27.52;49.39
20930;BME280;21895;47.072;15.132;2023-07-08T07:02:12;97194.00;;;27.59;48.31
20930;BME280;21895;47.072;15.132;2023-07-08T07:04:39;97195.00;;;27.63;47.80
20930;BME280;21895;47.072;15.132;2023-07-08T07:07:06;97198.00;;;27.54;48.90
20930;BME280;21895;47.072;15.132;2023-07-08T07:09:33;97204.00;;;27.46;48.13
20930;BME280;21895;47.072;15.132;2023-07-08T07:12:00;97198.00;;;27.44;46.06
20930;BME280;21895;47.072;15.132;2023-07-08T07:14:26;97198.00;;;27.44;46.37
20930;BME280;21895;47.072;15.132;2023-07-08T07:16:56;97207.00;;;27.64;46.98
20930;BME280;21895;47.072;15.132;2023-07-08T07:19:25;97209.00;;;28.08;44.79
20930;BME280;21895;47.072;15.132;2023-07-08T07:21:52;97211.00;;;28.20;44.86
20930;BME280;21895;47.072;15.132;2023-07-08T07:24:19;97207.00;;;28.21;44.89
20930;BME280;21895;47.072;15.132;2023-07-08T07:26:45;97199.00;;;28.35;45.09
20930;BME280;21895;47.072;15.132;2023-07-08T07:29:16;97199.00;;;28.56;42.97
20930;BME280;21895;47.072;15.132;2023-07-08T07:31:43;97199.00;;;28.70;42.43
20930;BME280;21895;47.072;15.132;2023-07-08T07:34:10;97191.00;;;29.03;41.39
20930;BME280;21895;47.072;15.132;2023-07-08T07:36:38;97194.00;;;29.09;41.51
20930;BME280;21895;47.072;15.132;2023-07-08T07:39:04;97201.00;;;29.15;41.02
20930;BME280;21895;47.072;15.132;2023-07-08T07:41:31;97200.00;;;29.23;42.57
20930;BME280;21895;47.072;15.132;2023-07-08T07:43:57;97195.00;;;29.06;41.92
20930;BME280;21895;47.072;15.132;2023-07-08T07:46:24;97191.00;;;29.12;41.49
20930;BME280;21895;47.072;15.132;2023-07-08T07:48:51;97200.00;;;29.35;39.82
20930;BME280;21895;47.072;15.132;2023-07-08T07:51:17;97197.00;;;29.25;39.55
20930;BME280;21895;47.072;15.132;2023-07-08T07:53:44;97197.00;;;29.38;38.57
20930;BME280;21895;47.072;15.132;2023-07-08T07:56:11;97197.00;;;29.17;39.27
20930;BME280;21895;47.072;15.132;2023-07-08T07:58:37;97193.00;;;28.97;38.30
20930;BME280;21895;47.072;15.132;2023-07-08T08:01:04;97192.00;;;29.21;40.30
20930;BME280;21895;47.072;15.132;2023-07-08T08:03:31;97177.00;;;29.35;38.24
20930;BME280;21895;47.072;15.132;2023-07-08T08:05:58;97186.00;;;29.40;38.91
20930;BME280;21895;47.072;15.132;2023-07-08T08:08:25;97190.00;;;29.48;37.91
20930;BME280;21895;47.072;15.132;2023-07-08T08:10:51;97179.00;;;29.64;37.20
20930;BME280;21895;47.072;15.132;2023-07-08T08:13:18;97176.00;;;29.76;37.03
20930;BME280;21895;47.072;15.132;2023-07-08T08:15:45;97177.00;;;29.59;37.75
20930;BME280;21895;47.072;15.132;2023-07-08T08:18:11;97175.00;;;29.58;37.46
20930;BME280;21895;47.072;15.132;2023-07-08T08:20:38;97179.00;;;29.56;37.87
20930;BME280;21895;47.072;15.132;2023-07-08T08:23:06;97180.00;;;29.80;38.16
20930;BME280;21895;47.072;15.132;2023-07-08T08:25:33;97177.00;;;29.82;38.27
20930;BME280;21895;47.072;15.132;2023-07-08T08:27:59;97175.00;;;29.80;38.94
20930;BME280;21895;47.072;15.132;2023-07-08T08:30:26;97179.00;;;30.06;35.44
20930;BME280;21895;47.072;15.132;2023-07-08T08:32:52;97176.00;;;29.93;38.13
20930;BME280;21895;47.072;15.132;2023-07-08T08:35:19;97177.00;;;29.98;36.14
20930;BME280;21895;47.072;15.132;2023-07-08T08:37:46;97184.00;;;29.88;38.14
20930;BME280;21895;47.072;15.132;2023-07-08T08:40:17;97185.00;;;29.99;38.12
20930;BME280;21895;47.072;15.132;2023-07-08T08:43:01;97182.00;;;29.90;38.21
20930;BME280;21895;47.072;15.132;2023-07-08T08:45:36;97187.00;;;30.14;38.64
20930;BME280;21895;47.072;15.132;2023-07-08T08:48:15;97189.00;;;30.16;38.62
20930;BME280;21895;47.072;15.132;2023-07-08T08:51:12;97183.00;;;30.28;37.26
20930;BME280;21895;47.072;15.132;2023-07-08T08:53:40;97190.00;;;30.28;37.50
20930;BME280;21895;47.072;15.132;2023-07-08T08:57:39;97186.00;;;30.40;36.09
20930;BME280;21895;47.072;15.132;2023-07-08T09:00:11;97186.00;;;30.20;38.15
20930;BME280;21895;47.072;15.132;2023-07-08T09:03:12;97176.00;;;30.16;36.64
20930;BME280;21895;47.072;15.132;2023-07-08T09:05:45;97183.00;;;30.24;36.61
20930;BME280;21895;47.072;15.132;2023-07-08T09:08:20;97194.00;;;30.19;38.09
20930;BME280;21895;47.072;15.132;2023-07-08T09:11:03;97189.00;;;30.30;37.00
20930;BME280;21895;47.072;15.132;2023-07-08T09:13:37;97182.00;;;30.44;36.35
20930;BME280;21895;47.072;15.132;2023-07-08T09:18:43;97192.00;;;30.44;36.98
20930;BME280;21895;47.072;15.132;2023-07-08T09:21:28;97196.00;;;30.41;36.03
20930;BME280;21895;47.072;15.132;2023-07-08T09:24:07;97200.00;;;30.49;35.46
20930;BME280;21895;47.072;15.132;2023-07-08T09:26:36;97195.00;;;30.32;35.48
20930;BME280;21895;47.072;15.132;2023-07-08T09:29:08;97198.00;;;30.49;36.08
20930;BME280;21895;47.072;15.132;2023-07-08T09:31:39;97188.00;;;30.45;35.87
20930;BME280;21895;47.072;15.132;2023-07-08T09:34:21;97194.00;;;30.62;33.81
20930;BME280;21895;47.072;15.132;2023-07-08T09:36:51;97198.00;;;30.72;33.76
20930;BME280;21895;47.072;15.132;2023-07-08T09:39:20;97192.00;;;30.56;32.66
20930;BME280;21895;47.072;15.132;2023-07-08T09:41:49;97185.00;;;30.52;34.86
20930;BME280;21895;47.072;15.132;2023-07-08T09:44:28;97185.00;;;30.41;35.28
20930;BME280;21895;47.072;15.132;2023-07-08T09:46:59;97192.00;;;30.17;35.17
20930;BME280;21895;47.072;15.132;2023-07-08T09:49:35;97188.00;;;30.24;35.20
20930;BME280;21895;47.072;15.132;2023-07-08T09:52:04;97187.00;;;30.28;34.86
20930;BME280;21895;47.072;15.132;2023-07-08T09:54:31;97182.00;;;30.38;35.34
20930;BME280;21895;47.072;15.132;2023-07-08T09:57:21;97183.00;;;30.66;35.43
20930;BME280;21895;47.072;15.132;2023-07-08T10:00:06;97185.00;;;30.97;35.84
20930;BME280;21895;47.072;15.132;2023-07-08T10:02:58;97176.00;;;31.25;35.96
20930;BME280;21895;47.072;15.132;2023-07-08T10:05:37;97178.00;;;31.50;34.83
20930;BME280;21895;47.072;15.132;2023-07-08T10:08:20;97180.00;;;31.27;33.33
20930;BME280;21895;47.072;15.132;2023-07-08T10:11:02;97174.00;;;30.88;34.65
20930;BME280;21895;47.072;15.132;2023-07-08T10:13:43;97178.00;;;30.70;35.50
20930;BME280;21895;47.072;15.132;2023-07-08T10:16:32;97173.00;;;30.70;35.85
20930;BME280;21895;47.072;15.132;2023-07-08T10:19:00;97170.00;;;30.86;34.56
20930;BME280;21895;47.072;15.132;2023-07-08T10:27:39;97179.00;;;31.09;36.22
20930;BME280;21895;47.072;15.132;2023-07-08T10:30:40;97168.00;;;30.88;35.11
20930;BME280;21895;47.072;15.132;2023-07-08T10:35:33;97174.00;;;30.64;36.09
20930;BME280;21895;47.072;15.132;2023-07-08T10:40:59;97170.00;;;30.47;36.55
20930;BME280;21895;47.072;15.132;2023-07-08T10:46:12;97173.00;;;30.40;35.55
20930;BME280;21895;47.072;15.132;2023-07-08T10:49:44;97157.00;;;30.95;35.81
20930;BME280;21895;47.072;15.132;2023-07-08T10:56:16;97151.00;;;31.39;35.25
20930;BME280;21895;47.072;15.132;2023-07-08T11:10:02;97145.00;;;31.16;36.51
20930;BME280;21895;47.072;15.132;2023-07-08T11:13:06;97144.00;;;30.83;36.15
20930;BME280;21895;47.072;15.132;2023-07-08T11:16:10;97147.00;;;31.08;35.54
20930;BME280;21895;47.072;15.132;2023-07-08T11:21:53;97145.00;;;31.24;33.55
20930;BME280;21895;47.072;15.132;2023-07-08T11:25:05;97147.00;;;31.76;34.04
20930;BME280;21895;47.072;15.132;2023-07-08T11:27:43;97140.00;;;32.00;34.50
20930;BME280;21895;47.072;15.132;2023-07-08T11:30:21;97141.00;;;32.68;32.71
20930;BME280;21895;47.072;15.132;2023-07-08T11:32:57;97141.00;;;32.50;32.59
20930;BME280;21895;47.072;15.132;2023-07-08T11:35:49;97132.00;;;32.34;33.44
20930;BME280;21895;47.072;15.132;2023-07-08T11:38:20;97137.00;;;32.40;32.96
20930;BME280;21895;47.072;15.132;2023-07-08T11:41:31;97134.00;;;32.28;35.46
20930;BME280;21895;47.072;15.132;2023-07-08T11:44:04;97125.00;;;32.01;34.33
20930;BME280;21895;47.072;15.132;2023-07-08T11:46:33;97125.00;;;31.99;33.17
20930;BME280;21895;47.072;15.132;2023-07-08T11:49:13;97136.00;;;31.73;34.81
20930;BME280;21895;47.072;15.132;2023-07-08T11:51:45;97134.00;;;31.52;36.03
20930;BME280;21895;47.072;15.132;2023-07-08T11:54:35;97124.00;;;31.53;35.86
20930;BME280;21895;47.072;15.132;2023-07-08T11:57:07;97125.00;;;31.36;36.26
20930;BME280;21895;47.072;15.132;2023-07-08T11:59:42;97124.00;;;31.44;35.20
20930;BME280;21895;47.072;15.132;2023-07-08T12:02:21;97127.00;;;31.39;35.34
20930;BME280;21895;47.072;15.132;2023-07-08T12:05:13;97130.00;;;31.46;36.48
20930;BME280;21895;47.072;15.132;2023-07-08T12:07:56;97109.00;;;31.52;34.75
20930;BME280;21895;47.072;15.132;2023-07-08T12:10:49;97105.00;;;31.57;34.33
20930;BME280;21895;47.072;15.132;2023-07-08T12:13:21;97099.00;;;31.37;34.92
20930;BME280;21895;47.072;15.132;2023-07-08T12:15:49;97098.00;;;31.42;33.87
20930;BME280;21895;47.072;15.132;2023-07-08T12:18:25;97109.00;;;31.17;34.25
20930;BME280;21895;47.072;15.132;2023-07-08T12:20:59;97105.00;;;31.18;35.52
20930;BME280;21895;47.072;15.132;2023-07-08T12:23:28;97106.00;;;30.98;34.89
20930;BME280;21895;47.072;15.132;2023-07-08T12:25:57;97095.00;;;31.15;34.65
20930;BME280;21895;47.072;15.132;2023-07-08T12:28:24;97096.00;;;31.07;35.33
20930;BME280;21895;47.072;15.132;2023-07-08T12:30:52;97091.00;;;30.85;34.88
20930;BME280;21895;47.072;15.132;2023-07-08T12:33:43;97090.00;;;30.84;35.77
20930;BME280;21895;47.072;15.132;2023-07-08T12:36:22;97079.00;;;31.00;34.70
20930;BME280;21895;47.072;15.132;2023-07-08T12:38:55;97077.00;;;30.72;35.56
20930;BME280;21895;47.072;15.132;2023-07-08T12:41:34;97089.00;;;30.99;36.25
20930;BME280;21895;47.072;15.132;2023-07-08T12:44:18;97080.00;;;30.84;36.39
20930;BME280;21895;47.072;15.132;2023-07-08T12:46:48;97082.00;;;30.93;35.86
20930;BME280;21895;47.072;15.132;2023-07-08T12:49:16;97091.00;;;30.84;35.78
20930;BME280;21895;47.072;15.132;2023-07-08T12:51:45;97087.00;;;30.82;35.76
20930;BME280;21895;47.072;15.132;2023-07-08T12:54:14;97084.00;;;30.87;35.51
20930;BME280;21895;47.072;15.132;2023-07-08T12:56:45;97090.00;;;31.04;36.62
20930;BME280;21895;47.072;15.132;2023-07-08T12:59:21;97090.00;;;31.23;36.51
20930;BME280;21895;47.072;15.132;2023-07-08T13:01:50;97084.00;;;31.24;35.01
20930;BME280;21895;47.072;15.132;2023-07-08T13:04:19;97088.00;;;31.21;35.87
20930;BME280;21895;47.072;15.132;2023-07-08T13:06:47;97083.00;;;31.23;35.33
20930;BME280;21895;47.072;15.132;2023-07-08T13:09:43;97072.00;;;31.06;35.49
20930;BME280;21895;47.072;15.132;2023-07-08T13:12:20;97075.00;;;30.96;37.47
20930;BME280;21895;47.072;15.132;2023-07-08T13:14:53;97072.00;;;31.18;34.72
20930;BME280;21895;47.072;15.132;2023-07-08T13:17:22;97078.00;;;30.87;35.73
20930;BME280;21895;47.072;15.132;2023-07-08T13:19:49;97078.00;;;30.94;36.62
20930;BME280;21895;47.072;15.132;2023-07-08T13:22:19;97073.00;;;31.19;35.68
20930;BME280;21895;47.072;15.132;2023-07-08T13:24:47;97069.00;;;31.31;35.55
20930;BME280;21895;47.072;15.132;2023-07-08T13:27:23;97069.00;;;31.46;36.52
20930;BME280;21895;47.072;15.132;2023-07-08T13:29:56;97065.00;;;31.47;34.66
20930;BME280;21895;47.072;15.132;2023-07-08T13:32:32;97071.00;;;31.30;35.50
20930;BME280;21895;47.072;15.132;2023-07-08T13:34:59;97070.00;;;31.43;35.06
20930;BME280;21895;47.072;15.132;2023-07-08T13:37:25;97070.00;;;31.34;36.42
20930;BME280;21895;47.072;15.132;2023-07-08T13:39:54;97062.00;;;31.35;34.80
20930;BME280;21895;47.072;15.132;2023-07-08T13:42:21;97068.00;;;31.63;36.61
20930;BME280;21895;47.072;15.132;2023-07-08T13:44:49;97059.00;;;31.80;35.36
20930;BME280;21895;47.072;15.132;2023-07-08T13:47:28;97061.00;;;31.79;34.43
20930;BME280;21895;47.072;15.132;2023-07-08T13:50:50;97062.00;;;32.03;35.27